| time (UTC) | temp F | wind direction | speed knots | gust knots | rain 1hr in | rain 24hr in | rain mn in | humidity % | barometer mb |
| 20260510120033 | 52 | 227 | 0.9 | 4.3 | 0.00 | 0.15 | 0.01 | 100 | 1013.1 |
| 20260510114537 | 52 | 284 | 2.6 | 4.3 | 0.00 | 0.15 | 0.01 | 100 | 1012.7 |
| 20260510113023 | 51 | 177 | 0.0 | 4.3 | 0.00 | 0.15 | 0.01 | 100 | 1012.3 |
| 20260510111529 | 51 | 167 | 1.7 | 3.5 | 0.00 | 0.15 | 0.01 | 100 | 1012.2 |
| 20260510110032 | 51 | 167 | 0.0 | 1.7 | 0.00 | 0.15 | 0.01 | 100 | 1012.0 |
| 20260510104533 | 51 | 167 | 0.0 | 0.0 | 0.00 | 0.15 | 0.01 | 100 | 1012.1 |
| 20260510103031 | 51 | 167 | 0.0 | 1.7 | 0.00 | 0.15 | 0.01 | 100 | 1012.2 |
| 20260510101535 | 51 | 167 | 0.0 | 1.7 | 0.00 | 0.15 | 0.01 | 100 | 1012.1 |
| 20260510100032 | 51 | 167 | 0.0 | 0.9 | 0.00 | 0.15 | 0.01 | 100 | 1012.2 |
| 20260510094543 | 51 | 161 | 0.9 | 3.5 | 0.00 | 0.15 | 0.01 | 100 | 1011.8 |
| 20260510093042 | 51 | 103 | 0.0 | 0.0 | 0.00 | 0.15 | 0.01 | 100 | 1011.4 |
| 20260510091540 | 51 | 103 | 0.0 | 0.0 | 0.00 | 0.15 | 0.01 | 100 | 1011.7 |
| 20260510090039 | 51 | 145 | 0.0 | 0.0 | 0.00 | 0.15 | 0.01 | 100 | 1011.7 |
| 20260510084540 | 51 | 145 | 0.0 | 3.5 | 0.00 | 0.15 | 0.01 | 100 | 1011.7 |
| 20260510083036 | 51 | 84 | 0.0 | 0.9 | 0.00 | 0.15 | 0.01 | 100 | 1011.7 |
| 20260510081554 | 51 | 90 | 0.0 | 1.7 | 0.00 | 0.15 | 0.01 | 100 | 1011.8 |
| 20260510080040 | 51 | 338 | 0.9 | 4.3 | 0.00 | 0.15 | 0.01 | 100 | 1011.8 |
| 20260510074526 | 50 | 323 | 0.9 | 3.5 | 0.00 | 0.15 | 0.01 | 100 | 1012.0 |
| 20260510073027 | 49 | 323 | 1.7 | 4.3 | 0.00 | 0.15 | 0.01 | 100 | 1011.7 |
| 20260510071532 | 49 | 18 | 0.0 | 0.0 | 0.00 | 0.15 | 0.01 | 100 | 1011.0 |
| 20260510070037 | 49 | 18 | 0.0 | 0.9 | 0.00 | 0.15 | 0.01 | 100 | 1011.1 |
| 20260510064534 | 48 | 18 | 0.0 | 0.0 | 0.01 | 0.15 | 0.01 | 100 | 1011.1 |
| 20260510063035 | 48 | 18 | 0.0 | 0.0 | 0.01 | 0.15 | 0.01 | 100 | 1011.3 |
| 20260510061530 | 48 | 18 | 0.9 | 1.7 | 0.01 | 0.15 | 0.01 | 99 | 1011.6 |
| 20260510060026 | 48 | 158 | 0.0 | 1.7 | 0.01 | 0.15 | 0.01 | 99 | 1011.1 |
| 20260510054557 | 48 | 158 | 0.0 | 0.0 | 0.00 | 0.14 | 0.00 | 99 | 1011.1 |
| 20260510053046 | 48 | 158 | 0.0 | 0.0 | 0.00 | 0.14 | 0.00 | 100 | 1011.0 |
| 20260510051535 | 48 | 158 | 0.0 | 0.0 | 0.00 | 0.14 | 0.00 | 100 | 1011.2 |
| 20260510050052 | 48 | 158 | 0.0 | 0.0 | 0.00 | 0.14 | 0.00 | 99 | 1011.2 |
| 20260510044536 | 48 | 158 | 0.0 | 0.0 | 0.00 | 0.14 | 0.00 | 99 | 1011.3 |
| 20260510043029 | 48 | 158 | 0.0 | 0.0 | 0.00 | 0.14 | 0.00 | 99 | 1011.3 |
| 20260510041542 | 49 | 158 | 0.0 | 0.0 | 0.00 | 0.14 | 0.00 | 99 | 1011.4 |
| 20260510034544 | 48 | 158 | 0.0 | 0.0 | 0.00 | 0.14 | 0.14 | 99 | 1011.3 |
| 20260510033047 | 48 | 158 | 0.0 | 0.0 | 0.00 | 0.14 | 0.14 | 98 | 1011.3 |
| 20260510031550 | 48 | 158 | 0.0 | 0.0 | 0.00 | 0.14 | 0.14 | 98 | 1011.2 |
| 20260510030041 | 49 | 158 | 0.0 | 0.0 | 0.00 | 0.14 | 0.14 | 98 | 1011.1 |
| 20260510024603 | 49 | 158 | 0.0 | 0.0 | 0.00 | 0.14 | 0.14 | 98 | 1011.1 |
| 20260510023047 | 50 | 158 | 0.0 | 0.0 | 0.00 | 0.14 | 0.14 | 98 | 1010.9 |
| 20260510021545 | 50 | 158 | 0.0 | 0.0 | 0.00 | 0.14 | 0.14 | 97 | 1010.9 |
| 20260510020042 | 51 | 158 | 0.0 | 0.0 | 0.00 | 0.14 | 0.14 | 97 | 1010.8 |
| 20260510014547 | 51 | 158 | 0.0 | 0.0 | 0.00 | 0.14 | 0.14 | 97 | 1010.9 |
| 20260510013057 | 52 | 158 | 0.0 | 0.0 | 0.00 | 0.14 | 0.14 | 97 | 1010.8 |
| 20260510011529 | 53 | 158 | 0.0 | 0.0 | 0.00 | 0.14 | 0.14 | 96 | 1010.7 |
| 20260510010027 | 53 | 158 | 0.0 | 0.0 | 0.00 | 0.14 | 0.14 | 96 | 1010.5 |
| 20260510004528 | 54 | 158 | 0.0 | 1.7 | 0.00 | 0.14 | 0.14 | 96 | 1010.3 |
| 20260510003029 | 55 | 158 | 0.0 | 3.5 | 0.00 | 0.14 | 0.14 | 96 | 1010.2 |
| 20260510001535 | 55 | 140 | 0.9 | 4.3 | 0.00 | 0.14 | 0.14 | 95 | 1010.0 |
| 20260510000034 | 56 | 169 | 0.0 | 1.7 | 0.00 | 0.14 | 0.14 | 94 | 1009.9 |
| 20260509234534 | 57 | 155 | 2.6 | 5.2 | 0.00 | 0.14 | 0.14 | 93 | 1009.9 |
| 20260509233030 | 57 | 154 | 0.9 | 2.6 | 0.00 | 0.14 | 0.14 | 93 | 1010.0 |
| 20260509231538 | 57 | 154 | 0.9 | 3.5 | 0.00 | 0.14 | 0.14 | 91 | 1010.0 |
| 20260509230040 | 58 | 178 | 0.9 | 4.3 | 0.00 | 0.14 | 0.14 | 90 | 1009.9 |
| 20260509224545 | 58 | 153 | 2.6 | 5.2 | 0.00 | 0.14 | 0.14 | 89 | 1009.8 |
| 20260509223046 | 59 | 164 | 1.7 | 4.3 | 0.00 | 0.14 | 0.14 | 88 | 1009.9 |
| 20260509221533 | 59 | 92 | 0.0 | 1.7 | 0.00 | 0.14 | 0.14 | 90 | 1009.9 |
| 20260509220032 | 58 | 137 | 0.0 | 3.5 | 0.00 | 0.14 | 0.14 | 89 | 1009.9 |
| 20260509214534 | 58 | 155 | 0.0 | 3.5 | 0.00 | 0.14 | 0.14 | 91 | 1009.7 |
| 20260509213036 | 58 | 5 | 0.0 | 1.7 | 0.00 | 0.14 | 0.14 | 90 | 1009.7 |
| 20260509211526 | 57 | 317 | 0.0 | 3.5 | 0.00 | 0.14 | 0.14 | 91 | 1010.0 |
| 20260509210033 | 57 | 352 | 1.7 | 5.2 | 0.00 | 0.14 | 0.14 | 91 | 1010.1 |
| 20260509204533 | 57 | 360 | 0.9 | 3.5 | 0.01 | 0.14 | 0.14 | 92 | 1010.3 |
| 20260509203034 | 56 | 300 | 0.0 | 1.7 | 0.01 | 0.14 | 0.14 | 94 | 1010.2 |
| 20260509201542 | 55 | 263 | 0.0 | 0.9 | 0.01 | 0.14 | 0.14 | 94 | 1010.1 |
| 20260509200049 | 55 | 263 | 0.0 | 1.7 | 0.01 | 0.14 | 0.14 | 95 | 1010.3 |
| 20260509194532 | 55 | 314 | 0.0 | 0.0 | 0.02 | 0.13 | 0.13 | 94 | 1010.4 |
| 20260509193030 | 55 | 314 | 0.0 | 0.0 | 0.06 | 0.13 | 0.13 | 95 | 1010.7 |
| 20260509191537 | 55 | 314 | 0.0 | 1.7 | 0.06 | 0.13 | 0.13 | 95 | 1011.0 |
| 20260509190045 | 55 | 314 | 0.0 | 0.0 | 0.08 | 0.13 | 0.13 | 95 | 1011.3 |
| 20260509184540 | 55 | 314 | 0.9 | 4.3 | 0.08 | 0.11 | 0.11 | 95 | 1011.7 |
| 20260509183038 | 55 | 303 | 0.0 | 4.3 | 0.04 | 0.07 | 0.07 | 95 | 1011.7 |
| 20260509181543 | 55 | 310 | 0.0 | 3.5 | 0.04 | 0.07 | 0.07 | 94 | 1011.7 |
| 20260509180044 | 55 | 296 | 0.9 | 5.2 | 0.03 | 0.05 | 0.05 | 92 | 1011.8 |
| 20260509174528 | 56 | 272 | 0.0 | 1.7 | 0.02 | 0.03 | 0.03 | 91 | 1011.7 |
| 20260509173113 | 56 | 10 | 0.0 | 1.7 | 0.03 | 0.03 | 0.03 | 92 | 1011.6 |
| 20260509171547 | 56 | 345 | 0.0 | 1.7 | 0.03 | 0.03 | 0.03 | 91 | 1011.6 |
| 20260509170027 | 57 | 345 | 0.0 | 1.7 | 0.02 | 0.02 | 0.02 | 91 | 1011.2 |
| 20260509164533 | 57 | 307 | 0.0 | 1.7 | 0.01 | 0.01 | 0.01 | 91 | 1011.5 |
| 20260509163030 | 57 | 283 | 1.7 | 6.1 | 0.00 | 0.00 | 0.00 | 89 | 1011.5 |
| 20260509161539 | 57 | 340 | 1.7 | 6.1 | 0.00 | 0.00 | 0.00 | 88 | 1011.8 |
| 20260509160045 | 57 | 232 | 2.6 | 7.8 | 0.00 | 0.00 | 0.00 | 87 | 1012.0 |
| 20260509154542 | 58 | 204 | 0.9 | 6.1 | 0.00 | 0.00 | 0.00 | 87 | 1012.1 |
| 20260509153040 | 57 | 228 | 2.6 | 7.0 | 0.00 | 0.00 | 0.00 | 86 | 1012.2 |
| 20260509151554 | 57 | 216 | 0.9 | 6.1 | 0.00 | 0.00 | 0.00 | 87 | 1012.1 |
| 20260509150029 | 57 | 248 | 4.3 | 8.7 | 0.00 | 0.00 | 0.00 | 86 | 1012.1 |
| 20260509144530 | 57 | 227 | 2.6 | 7.0 | 0.00 | 0.00 | 0.00 | 86 | 1012.0 |
| 20260509143030 | 57 | 259 | 1.7 | 7.0 | 0.00 | 0.00 | 0.00 | 85 | 1012.0 |
| 20260509141533 | 56 | 224 | 2.6 | 7.0 | 0.00 | 0.00 | 0.00 | 85 | 1011.9 |
| 20260509140030 | 56 | 237 | 2.6 | 10.4 | 0.00 | 0.00 | 0.00 | 85 | 1011.7 |
| 20260509134531 | 56 | 222 | 3.5 | 7.0 | 0.00 | 0.00 | 0.00 | 85 | 1011.7 |
| 20260509133026 | 56 | 228 | 0.9 | 5.2 | 0.00 | 0.00 | 0.00 | 84 | 1011.7 |
| 20260509131540 | 56 | 237 | 0.0 | 4.3 | 0.00 | 0.00 | 0.00 | 85 | 1011.7 |
| 20260509130053 | 55 | 176 | 2.6 | 6.1 | 0.00 | 0.00 | 0.00 | 84 | 1011.8 |
| 20260509124543 | 55 | 196 | 0.0 | 4.3 | 0.00 | 0.00 | 0.00 | 84 | 1011.7 |
| 20260509123114 | 54 | 176 | 0.0 | 4.3 | 0.00 | 0.00 | 0.00 | 85 | 1011.7 |
| 20260509121529 | 54 | 156 | 0.0 | 2.6 | 0.00 | 0.00 | 0.00 | 86 | 1011.8 |